Terminal Aerodrome Forecast
Issued by NWS Shreveport, LA

Home | Current Version | Previous Version | Text Only | Print | Product List | Glossary On
Versions: 1 2 3 4 5 6 7 8 9 10 11 12 13 14 15 16 17 18
166
FTUS44 KSHV 191805 RRA
TAFLFK
TAF
KLFK 191805Z 1918/2018 21006KT 5SM -RA BR OVC006
     FM192100 21008KT P6SM OVC007
     FM200200 18005KT P6SM OVC007
     FM200900 19005KT 3SM BR OVC003
     FM201100 20004KT 1/2SM FG OVC001
     FM201500 20009KT P6SM BKN006=

USA.gov is the U.S. government's official web portal to all federal, state and local government web resources and services.